createdAt,value
2019-03-08T00:02:24.106Z,76.28
2019-03-08T00:07:19.952Z,77.55
2019-03-08T00:12:15.853Z,77.14
2019-03-08T00:17:11.710Z,77.03
2019-03-08T00:22:10.058Z,76.22
2019-03-08T00:27:08.733Z,76.16
2019-03-08T00:32:04.776Z,75.78
2019-03-08T00:37:02.423Z,75.63
2019-03-08T00:41:58.300Z,76.53
2019-03-08T00:46:54.194Z,76.36
2019-03-08T00:51:50.303Z,75.66
2019-03-08T00:56:46.087Z,75.84
2019-03-08T01:01:41.931Z,76.79
2019-03-08T01:06:37.750Z,76.63
2019-03-08T01:11:33.560Z,76.87
2019-03-08T01:16:29.452Z,77.05
2019-03-08T01:21:25.432Z,77.86
2019-03-08T01:26:21.258Z,79.22
2019-03-08T01:31:17.135Z,80.12
2019-03-08T01:36:13.974Z,79.75
2019-03-08T01:41:15.612Z,80.77
2019-03-08T01:46:11.846Z,82.82
2019-03-08T01:51:17.141Z,83.19
2019-03-08T01:56:16.481Z,83.54
2019-03-08T02:01:12.713Z,83.38
2019-03-08T02:06:09.041Z,82.36
2019-03-08T02:11:04.930Z,84.02
2019-03-08T02:16:01.022Z,85.33
2019-03-08T02:21:06.248Z,84.79
2019-03-08T02:25:54.729Z,84.65
2019-03-08T02:30:50.645Z,83.96
2019-03-08T02:35:46.440Z,85.17
2019-03-08T02:40:42.340Z,85.00
2019-03-08T02:45:38.280Z,85.72
2019-03-08T02:50:34.121Z,84.61
2019-03-08T02:55:29.973Z,86.94
2019-03-08T03:00:30.342Z,86.85
2019-03-08T03:05:26.163Z,86.87
2019-03-08T03:10:22.007Z,86.21
2019-03-08T03:15:17.855Z,87.25
2019-03-08T03:20:14.104Z,87.34
2019-03-08T03:25:10.267Z,87.70
2019-03-08T03:30:07.433Z,87.28
2019-03-08T03:35:03.283Z,87.57
2019-03-08T03:39:59.206Z,85.77
2019-03-08T03:44:55.044Z,86.60
2019-03-08T03:49:50.919Z,85.32
2019-03-08T03:54:46.943Z,85.91
2019-03-08T03:59:42.956Z,87.56
2019-03-08T04:04:39.018Z,85.85
2019-03-08T04:09:34.875Z,87.30
2019-03-08T04:14:30.975Z,86.33
2019-03-08T04:19:26.914Z,86.32
2019-03-08T04:24:22.853Z,85.68
2019-03-08T04:29:18.719Z,85.88
2019-03-08T04:34:14.795Z,87.45
2019-03-08T04:39:11.001Z,86.92
2019-03-08T04:44:07.036Z,87.08
2019-03-08T04:49:02.929Z,87.09
2019-03-08T04:53:59.812Z,87.44
2019-03-08T04:58:59.132Z,86.41
2019-03-08T05:03:55.093Z,86.72
2019-03-08T05:08:50.944Z,85.83
2019-03-08T05:13:47.095Z,85.87
2019-03-08T05:18:43.015Z,86.27
2019-03-08T05:23:38.951Z,86.06
2019-03-08T05:28:34.901Z,86.03
2019-03-08T05:33:30.730Z,85.21
2019-03-08T05:38:26.974Z,84.77
2019-03-08T05:43:23.009Z,85.05
2019-03-08T05:48:22.529Z,85.09
2019-03-08T05:53:18.658Z,85.13
2019-03-08T05:58:14.693Z,85.97
2019-03-08T06:03:27.179Z,85.45
2019-03-08T06:08:23.218Z,85.34
2019-03-08T06:13:19.063Z,86.35
2019-03-08T06:18:18.075Z,87.52
2019-03-08T06:23:13.848Z,88.02
2019-03-08T06:28:43.312Z,89.49
2019-03-08T06:34:10.721Z,90.24
2019-03-08T06:39:09.039Z,90.72
2019-03-08T06:44:04.926Z,90.75
2019-03-08T06:49:02.630Z,90.00
2019-03-08T06:53:58.456Z,89.75
2019-03-08T06:59:08.488Z,88.90
2019-03-08T07:04:04.426Z,88.11
2019-03-08T07:09:00.340Z,88.06
2019-03-08T07:13:56.177Z,87.68
2019-03-08T07:18:52.333Z,87.13
2019-03-08T07:24:03.095Z,88.62
2019-03-08T07:29:26.664Z,87.71
2019-03-08T07:34:30.988Z,89.32
2019-03-08T07:39:51.750Z,90.07
2019-03-08T07:45:00.327Z,90.30
2019-03-08T07:50:13.713Z,90.93
2019-03-08T07:55:34.642Z,91.00
2019-03-08T08:00:47.520Z,92.24
2019-03-08T08:06:16.553Z,91.58
2019-03-08T08:11:43.419Z,91.40
2019-03-08T08:17:01.285Z,89.88
2019-03-08T08:22:24.008Z,88.71
2019-03-08T08:27:41.594Z,88.80
2019-03-08T08:33:02.322Z,87.30
2019-03-08T08:38:25.738Z,85.78
2019-03-08T08:43:49.578Z,83.02
2019-03-08T08:49:10.446Z,84.13
2019-03-08T08:54:24.289Z,84.37
2019-03-08T08:59:48.081Z,85.17
2019-03-08T09:05:01.766Z,82.94
2019-03-08T09:10:11.980Z,83.77
2019-03-08T09:15:17.693Z,83.43
2019-03-08T09:20:31.776Z,82.14
2019-03-08T09:25:32.955Z,82.28
2019-03-08T09:30:43.780Z,83.26
2019-03-08T09:36:10.658Z,83.22
2019-03-08T09:41:31.650Z,80.28
2019-03-08T09:46:34.817Z,81.08
2019-03-08T09:51:52.598Z,80.42
2019-03-08T09:57:25.834Z,80.85
2019-03-08T10:02:38.880Z,79.88
2019-03-08T10:07:40.196Z,79.38
2019-03-08T10:12:54.031Z,79.75
2019-03-08T10:18:19.141Z,80.20
2019-03-08T10:23:36.625Z,78.83
2019-03-08T10:28:41.777Z,78.77
2019-03-08T10:39:21.421Z,78.01
2019-03-08T10:44:30.892Z,77.85
2019-03-08T10:49:44.633Z,77.42
2019-03-08T10:54:58.640Z,76.64
2019-03-08T11:00:24.887Z,75.38
2019-03-08T11:05:31.904Z,77.16
2019-03-08T11:10:52.881Z,75.48
2019-03-08T11:16:06.338Z,74.80
2019-03-08T11:21:32.415Z,76.25
2019-03-08T11:26:45.559Z,76.54
2019-03-08T11:32:28.474Z,77.28
2019-03-08T11:46:33.118Z,75.75
2019-03-08T12:09:36.488Z,73.68
2019-03-08T12:21:00.500Z,79.39
2019-03-08T12:26:57.868Z,78.81
2019-03-08T12:32:27.927Z,77.89
2019-03-08T12:38:14.317Z,77.49
2019-03-08T12:43:40.973Z,77.25
2019-03-08T12:49:26.830Z,76.83
2019-03-08T12:55:16.416Z,77.65
2019-03-08T13:01:08.711Z,80.93
2019-03-08T13:06:59.494Z,81.43
2019-03-08T13:11:49.563Z,79.85
2019-03-08T13:17:12.189Z,80.23
2019-03-08T13:22:39.621Z,78.97
2019-03-08T13:34:28.456Z,79.01
2019-03-08T13:44:59.627Z,80.40
2019-03-08T13:49:57.235Z,79.30
2019-03-08T13:54:56.286Z,76.97
2019-03-08T14:00:05.836Z,77.60
2019-03-08T14:05:15.235Z,76.50
2019-03-08T14:10:31.250Z,78.42
2019-03-08T14:15:47.522Z,77.53
2019-03-08T14:21:04.862Z,77.42
2019-03-08T14:26:51.511Z,76.06
2019-03-08T14:32:21.030Z,76.21
2019-03-08T14:37:48.246Z,75.80
2019-03-08T14:43:32.104Z,76.76
2019-03-08T14:49:09.938Z,75.43
2019-03-08T14:54:46.313Z,75.72
2019-03-08T14:59:41.947Z,76.54
2019-03-08T15:04:40.240Z,75.30
2019-03-08T15:09:46.931Z,74.11
2019-03-08T15:15:11.794Z,74.61
2019-03-08T15:20:15.120Z,75.50
2019-03-08T15:25:14.151Z,74.63
2019-03-08T15:30:43.162Z,76.31
2019-03-08T15:36:05.953Z,75.88
2019-03-08T15:41:06.671Z,75.36
2019-03-08T15:46:02.898Z,74.70
2019-03-08T15:50:59.555Z,75.77
2019-03-08T15:56:12.153Z,74.57
2019-03-08T16:01:08.144Z,73.77
2019-03-08T16:06:06.496Z,74.52
2019-03-08T16:11:01.886Z,73.92
2019-03-08T16:15:57.897Z,75.60
2019-03-08T16:20:56.175Z,74.26
2019-03-08T16:25:58.815Z,75.13
2019-03-08T16:31:42.187Z,75.97
2019-03-08T16:37:19.324Z,76.40
2019-03-08T16:42:23.954Z,77.46
2019-03-08T16:47:53.884Z,77.89
2019-03-08T16:53:40.239Z,77.67
2019-03-08T16:59:30.469Z,78.91
2019-03-08T17:05:09.246Z,79.54
2019-03-08T17:10:27.888Z,79.95
2019-03-08T17:15:52.136Z,81.27
2019-03-08T17:21:22.000Z,81.04
2019-03-08T17:26:48.144Z,80.56
2019-03-08T17:32:28.643Z,81.59
2019-03-08T17:37:57.503Z,81.98
2019-03-08T17:43:36.836Z,82.03
2019-03-08T17:54:34.575Z,81.28
2019-03-08T17:59:56.087Z,81.24
2019-03-08T18:10:43.712Z,83.31
2019-03-08T18:16:20.979Z,83.13
2019-03-08T18:22:08.717Z,83.38
2019-03-08T18:27:52.692Z,84.04
2019-03-08T18:33:27.871Z,82.63
2019-03-08T18:38:54.499Z,83.10
2019-03-08T18:44:13.868Z,83.54
2019-03-08T18:50:00.332Z,82.12
2019-03-08T18:55:47.832Z,82.50
2019-03-08T19:01:51.912Z,82.99
2019-03-08T19:07:33.646Z,82.60
2019-03-08T20:36:20.209Z,85.28
2019-03-08T20:41:35.169Z,85.97
2019-03-08T20:46:54.906Z,85.27
2019-03-08T20:51:57.765Z,86.01
2019-03-08T20:57:04.084Z,87.78
2019-03-08T21:02:00.158Z,86.76
2019-03-08T21:06:56.113Z,87.97
2019-03-08T21:11:52.061Z,86.86
2019-03-08T21:16:48.185Z,88.11
2019-03-08T21:21:44.147Z,87.75
2019-03-08T21:26:40.198Z,87.63
2019-03-08T21:31:36.075Z,87.03
2019-03-08T21:36:32.172Z,87.73
2019-03-08T21:41:28.102Z,87.13
2019-03-08T21:46:24.117Z,88.52
2019-03-08T21:51:19.971Z,87.41
2019-03-08T21:56:15.808Z,87.53
2019-03-08T22:01:11.761Z,87.26
2019-03-08T22:06:07.623Z,88.51
2019-03-08T22:11:18.782Z,89.27
2019-03-08T22:17:14.416Z,87.48
2019-03-08T22:22:10.470Z,88.62
2019-03-08T22:27:06.506Z,88.99
2019-03-08T22:32:02.549Z,89.27
2019-03-08T22:36:58.471Z,88.76
2019-03-08T22:41:54.361Z,89.32
2019-03-08T22:46:50.246Z,88.10
2019-03-08T22:51:47.723Z,87.48
2019-03-08T22:56:43.658Z,88.81
2019-03-08T23:02:00.050Z,88.87
2019-03-08T23:06:55.726Z,91.02
2019-03-08T23:11:51.807Z,90.33
2019-03-08T23:16:47.758Z,90.15
2019-03-08T23:21:43.634Z,90.97
2019-03-08T23:26:58.318Z,90.83
2019-03-08T23:31:59.461Z,91.18
2019-03-08T23:36:55.319Z,91.64
2019-03-08T23:41:53.688Z,90.95
2019-03-08T23:46:50.673Z,90.57
2019-03-08T23:51:46.744Z,90.98
2019-03-08T23:56:42.778Z,91.27
